Balcosna, Argentina
Current Conditions -  °F | °C
As of 9:00 PM on Saturday 20 Dec 2014 (Local Time) from SANT Reporting Station
Thunderstorm Thunderstorm  
Wind Chill: 84°   Ceiling: 10000
Heat Index: 92°   Visibility: 6mi
Dew Point: 75°   Wind: 14mph
Humidity: 74%   Direction: 140°SE
Pressure: 29.41"   Gusts: NA
Location:  27.88°S, 65.72°W
Report Text: SANT 210000Z 14012KT 9000 TS SCT035FEW050CB BKN100 29/24 Q0996
Loading
Personal Weather Stations






























Interactive Weather Map New forecast layout! Learn more

10-Day Weather Forecast

Advertisements
Track Severe Weather on mobile